地図

経路データ

SID SEASON NUMBER BASIN SUBBASIN NAME ISO_TIME NATURE LAT LON WMO_WIND WMO_PRES WMO_AGENCY TRACK_TYPE DIST2LAND LANDFALL IFLAG USA_AGENCY USA_ATCF_ID USA_LAT USA_LON USA_RECORD USA_STATUS USA_WIND USA_PRES USA_SSHS USA_R34_NE USA_R34_SE USA_R34_SW USA_R34_NW USA_R50_NE USA_R50_SE USA_R50_SW USA_R50_NW USA_R64_NE USA_R64_SE USA_R64_SW USA_R64_NW USA_POCI USA_ROCI USA_RMW USA_EYE TOKYO_LAT TOKYO_LON TOKYO_GRADE TOKYO_WIND TOKYO_PRES TOKYO_R50_DIR TOKYO_R50_LONG TOKYO_R50_SHORT TOKYO_R30_DIR TOKYO_R30_LONG TOKYO_R30_SHORT TOKYO_LAND CMA_LAT CMA_LON CMA_CAT CMA_WIND CMA_PRES HKO_LAT HKO_LON HKO_CAT HKO_WIND HKO_PRES NEWDELHI_LAT NEWDELHI_LON NEWDELHI_GRADE NEWDELHI_WIND NEWDELHI_PRES NEWDELHI_CI NEWDELHI_DP NEWDELHI_POCI REUNION_LAT REUNION_LON REUNION_TYPE REUNION_WIND REUNION_PRES REUNION_TNUM REUNION_CI REUNION_RMW REUNION_R34_NE REUNION_R34_SE REUNION_R34_SW REUNION_R34_NW REUNION_R50_NE REUNION_R50_SE REUNION_R50_SW REUNION_R50_NW REUNION_R64_NE REUNION_R64_SE REUNION_R64_SW REUNION_R64_NW BOM_LAT BOM_LON BOM_TYPE BOM_WIND BOM_PRES BOM_TNUM BOM_CI BOM_RMW BOM_R34_NE BOM_R34_SE BOM_R34_SW BOM_R34_NW BOM_R50_NE BOM_R50_SE BOM_R50_SW BOM_R50_NW BOM_R64_NE BOM_R64_SE BOM_R64_SW BOM_R64_NW BOM_ROCI BOM_POCI BOM_EYE BOM_POS_METHOD BOM_PRES_METHOD NADI_LAT NADI_LON NADI_CAT NADI_WIND NADI_PRES WELLINGTON_LAT WELLINGTON_LON WELLINGTON_WIND WELLINGTON_PRES DS824_LAT DS824_LON DS824_STAGE DS824_WIND DS824_PRES TD9636_LAT TD9636_LON TD9636_STAGE TD9636_WIND TD9636_PRES TD9635_LAT TD9635_LON TD9635_WIND TD9635_PRES TD9635_ROCI NEUMANN_LAT NEUMANN_LON NEUMANN_CLASS NEUMANN_WIND NEUMANN_PRES MLC_LAT MLC_LON MLC_CLASS MLC_WIND MLC_PRES USA_GUST BOM_GUST BOM_GUST_PER REUNION_GUST REUNION_GUST_PER USA_SEAHGT USA_SEARAD_NE USA_SEARAD_SE USA_SEARAD_SW USA_SEARAD_NW STORM_SPEED STORM_DIR
1973258N11338 1973 98 NA NA ELLEN 1973-09-14 12:00:00 TS 10.5000 -22.4000 30 hurdat_atl main 646 646 O_____________ hurdat_atl AL121973 10.5000 -22.4000 TD 30 -1 11 318
1973258N11338 1973 98 NA NA ELLEN 1973-09-14 15:00:00 TS 10.8899 -22.7600 main 675 672 P_____________ AL121973 10.8899 -22.7600 TD 30 -1 11 316
1973258N11338 1973 98 NA NA ELLEN 1973-09-14 18:00:00 TS 11.3000 -23.2000 30 hurdat_atl main 707 707 O_____________ hurdat_atl AL121973 11.3000 -23.2000 TD 30 -1 13 311
1973258N11338 1973 98 NA NA ELLEN 1973-09-14 21:00:00 TS 11.7427 -23.7574 main 760 755 P_____________ AL121973 11.7427 -23.7574 TD 30 -1 14 310
1973258N11338 1973 98 NA NA ELLEN 1973-09-15 00:00:00 TS 12.2000 -24.3000 30 hurdat_atl main 787 787 O_____________ hurdat_atl AL121973 12.2000 -24.3000 TD 30 -1 13 315
1973258N11338 1973 98 NA NA ELLEN 1973-09-15 03:00:00 TS 12.6498 -24.6803 main 813 809 P_____________ AL121973 12.6498 -24.6803 TD 30 -1 11 323
1973258N11338 1973 98 NA NA ELLEN 1973-09-15 06:00:00 TS 13.1000 -25.0000 30 hurdat_atl main 829 829 O_____________ hurdat_atl AL121973 13.1000 -25.0000 TD 30 -1 11 325
1973258N11338 1973 98 NA NA ELLEN 1973-09-15 09:00:00 TS 13.5348 -25.3204 main 852 850 P_____________ AL121973 13.5348 -25.3204 TD 35 0 11 323
1973258N11338 1973 98 NA NA ELLEN 1973-09-15 12:00:00 TS 14.0000 -25.7000 40 1003 hurdat_atl main 887 886 O_____________ hurdat_atl AL121973 14.0000 -25.7000 TS 40 1003 0 13 319
1973258N11338 1973 98 NA NA ELLEN 1973-09-15 15:00:00 TS 14.5349 -26.2051 main 936 936 P_____________ AL121973 14.5349 -26.2051 TS 40 0 15 316
1973258N11338 1973 98 NA NA ELLEN 1973-09-15 18:00:00 TS 15.1000 -26.8000 40 hurdat_atl main 1000 1000 O_____________ hurdat_atl AL121973 15.1000 -26.8000 TS 40 0 16 313
1973258N11338 1973 98 NA NA ELLEN 1973-09-15 21:00:00 TS 15.6574 -27.4352 main 1068 1068 P_____________ AL121973 15.6574 -27.4352 TS 40 0 17 311
1973258N11338 1973 98 NA NA ELLEN 1973-09-16 00:00:00 TS 16.2000 -28.1000 40 hurdat_atl main 1148 1148 O_____________ hurdat_atl AL121973 16.2000 -28.1000 TS 40 0 16 310
1973258N11338 1973 98 NA NA ELLEN 1973-09-16 03:00:00 TS 16.7073 -28.7504 main 1230 1230 P_____________ AL121973 16.7073 -28.7504 TS 40 0 16 309
1973258N11338 1973 98 NA NA ELLEN 1973-09-16 06:00:00 TS 17.2000 -29.4000 40 hurdat_atl main 1302 1302 O_____________ hurdat_atl AL121973 17.2000 -29.4000 TS 40 0 16 309
1973258N11338 1973 98 NA NA ELLEN 1973-09-16 09:00:00 TS 17.6996 -30.0355 main 1376 1376 P_____________ AL121973 17.6996 -30.0355 TS 40 0 16 309
1973258N11338 1973 98 NA NA ELLEN 1973-09-16 12:00:00 TS 18.2000 -30.7000 40 hurdat_atl main 1454 1454 O_____________ hurdat_atl AL121973 18.2000 -30.7000 TS 40 0 17 307
1973258N11338 1973 98 NA NA ELLEN 1973-09-16 15:00:00 TS 18.6998 -31.4279 main 1514 1514 P_____________ AL121973 18.6998 -31.4279 TS 40 0 17 305
1973258N11338 1973 98 NA NA ELLEN 1973-09-16 18:00:00 TS 19.2000 -32.2000 40 hurdat_atl main 1587 1587 O_____________ hurdat_atl AL121973 19.2000 -32.2000 TS 40 0 18 304
1973258N11338 1973 98 NA NA ELLEN 1973-09-16 21:00:00 TS 19.7073 -33.0002 main 1662 1662 P_____________ AL121973 19.7073 -33.0002 TS 42 0 18 304
1973258N11338 1973 98 NA NA ELLEN 1973-09-17 00:00:00 TS 20.2000 -33.8000 45 hurdat_atl main 1739 1739 O_____________ hurdat_atl AL121973 20.2000 -33.8000 TS 45 0 17 302
1973258N11338 1973 98 NA NA ELLEN 1973-09-17 03:00:00 TS 20.6121 -34.5588 main 1819 1818 P_____________ AL121973 20.6121 -34.5588 TS 45 0 17 303
1973258N11338 1973 98 NA NA ELLEN 1973-09-17 06:00:00 TS 21.1000 -35.3000 45 hurdat_atl main 1888 1888 O_____________ hurdat_atl AL121973 21.1000 -35.3000 TS 45 0 18 310
1973258N11338 1973 98 NA NA ELLEN 1973-09-17 09:00:00 TS 21.7747 -36.0507 main 1969 1969 P_____________ AL121973 21.7747 -36.0507 TS 47 0 21 317
1973258N11338 1973 98 NA NA ELLEN 1973-09-17 12:00:00 TS 22.6000 -36.8000 50 1008 hurdat_atl main 2038 2038 O_____________ hurdat_atl AL121973 22.6000 -36.8000 TS 50 1008 0 23 323
1973258N11338 1973 98 NA NA ELLEN 1973-09-17 15:00:00 TS 23.6021 -37.5491 main 2109 2109 P_____________ AL121973 23.6021 -37.5491 TS 50 0 24 324
1973258N11338 1973 98 NA NA ELLEN 1973-09-17 18:00:00 TS 24.5000 -38.3000 50 hurdat_atl main 2176 2176 O_____________ hurdat_atl AL121973 24.5000 -38.3000 TS 50 0 19 316
1973258N11338 1973 98 NA NA ELLEN 1973-09-17 21:00:00 TS 24.9891 -39.0220 main 2230 2230 P_____________ AL121973 24.9891 -39.0220 TS 50 0 16 300
1973258N11338 1973 98 NA NA ELLEN 1973-09-18 00:00:00 TS 25.3000 -39.8000 50 hurdat_atl main 2300 2300 O_____________ hurdat_atl AL121973 25.3000 -39.8000 TS 50 0 17 294
1973258N11338 1973 98 NA NA ELLEN 1973-09-18 03:00:00 TS 25.6726 -40.7275 main 2379 2379 P_____________ AL121973 25.6726 -40.7275 TS 50 0 19 292
1973258N11338 1973 98 NA NA ELLEN 1973-09-18 06:00:00 TS 26.0000 -41.7000 50 hurdat_atl main 2470 2445 O_____________ hurdat_atl AL121973 26.0000 -41.7000 TS 50 0 18 290
1973258N11338 1973 98 NA NA ELLEN 1973-09-18 09:00:00 TS 26.2869 -42.6152 main 2445 2395 P_____________ AL121973 26.2869 -42.6152 TS 52 0 17 287
1973258N11338 1973 98 NA NA ELLEN 1973-09-18 12:00:00 TS 26.5000 -43.5000 55 997 hurdat_atl main 2395 2360 O_____________ hurdat_atl AL121973 26.5000 -43.5000 TS 55 997 0 16 282
1973258N11338 1973 98 NA NA ELLEN 1973-09-18 15:00:00 TS 26.6217 -44.3507 main 2357 2286 P_____________ AL121973 26.6217 -44.3507 TS 57 996 0 15 277
1973258N11338 1973 98 NA NA ELLEN 1973-09-18 18:00:00 TS 26.7000 -45.2000 60 995 hurdat_atl main 2286 2215 O_____________ hurdat_atl AL121973 26.7000 -45.2000 TS 60 995 0 16 276
1973258N11338 1973 98 NA NA ELLEN 1973-09-18 21:00:00 TS 26.7997 -46.1001 main 2206 2127 P_____________ AL121973 26.7997 -46.1001 TS 62 0 16 277
1973258N11338 1973 98 NA NA ELLEN 1973-09-19 00:00:00 TS 26.9000 -47.0000 65 hurdat_atl main 2127 2059 O_____________ hurdat_atl AL121973 26.9000 -47.0000 HU 65 1 16 278
1973258N11338 1973 98 NA NA ELLEN 1973-09-19 03:00:00 TS 27.0147 -47.8798 main 2050 1983 P_____________ AL121973 27.0147 -47.8798 HU 65 1 15 278
1973258N11338 1973 98 NA NA ELLEN 1973-09-19 06:00:00 TS 27.1000 -48.7000 65 hurdat_atl main 1983 1921 O_____________ hurdat_atl AL121973 27.1000 -48.7000 HU 65 1 14 274
1973258N11338 1973 98 NA NA ELLEN 1973-09-19 09:00:00 TS 27.1068 -49.4229 main 1921 1860 P_____________ AL121973 27.1068 -49.4229 HU 67 1 12 270
1973258N11338 1973 98 NA NA ELLEN 1973-09-19 12:00:00 TS 27.1000 -50.1000 70 hurdat_atl main 1860 1799 O_____________ hurdat_atl AL121973 27.1000 -50.1000 HU 70 1 13 270
1973258N11338 1973 98 NA NA ELLEN 1973-09-19 15:00:00 TS 27.1051 -50.8379 main 1799 1745 P_____________ AL121973 27.1051 -50.8379 HU 72 1 12 275
1973258N11338 1973 98 NA NA ELLEN 1973-09-19 18:00:00 TS 27.2000 -51.5000 75 985 hurdat_atl main 1745 1715 O_____________ hurdat_atl AL121973 27.2000 -51.5000 HU 75 985 1 11 288
1973258N11338 1973 98 NA NA ELLEN 1973-09-19 21:00:00 TS 27.4396 -52.0099 main 1715 1703 P_____________ AL121973 27.4396 -52.0099 HU 75 1 10 307
1973258N11338 1973 98 NA NA ELLEN 1973-09-20 00:00:00 TS 27.8000 -52.4000 75 hurdat_atl main 1708 1703 O_____________ hurdat_atl AL121973 27.8000 -52.4000 HU 75 1 10 321
1973258N11338 1973 98 NA NA ELLEN 1973-09-20 03:00:00 TS 28.2273 -52.7302 main 1710 1708 P_____________ AL121973 28.2273 -52.7302 HU 75 1 10 330
1973258N11338 1973 98 NA NA ELLEN 1973-09-20 06:00:00 TS 28.7000 -53.0000 75 hurdat_atl main 1721 1721 O_____________ hurdat_atl AL121973 28.7000 -53.0000 HU 75 1 10 333
1973258N11338 1973 98 NA NA ELLEN 1973-09-20 09:00:00 TS 29.1349 -53.2653 main 1728 1728 P_____________ AL121973 29.1349 -53.2653 HU 77 1 10 334
1973258N11338 1973 98 NA NA ELLEN 1973-09-20 12:00:00 TS 29.6000 -53.5000 80 984 hurdat_atl main 1751 1751 O_____________ hurdat_atl AL121973 29.6000 -53.5000 HU 80 984 1 11 338
1973258N11338 1973 98 NA NA ELLEN 1973-09-20 15:00:00 TS 30.1200 -53.7299 main 1775 1731 P_____________ AL121973 30.1200 -53.7299 HU 80 982 1 12 343
1973258N11338 1973 98 NA NA ELLEN 1973-09-20 18:00:00 TS 30.7000 -53.9000 80 981 hurdat_atl main 1731 1664 O_____________ hurdat_atl AL121973 30.7000 -53.9000 HU 80 981 1 12 350
1973258N11338 1973 98 NA NA ELLEN 1973-09-20 21:00:00 TS 31.3350 -53.9876 main 1664 1591 P_____________ AL121973 31.3350 -53.9876 HU 80 979 1 13 356
1973258N11338 1973 98 NA NA ELLEN 1973-09-21 00:00:00 TS 32.0000 -54.0000 80 977 hurdat_atl main 1591 1529 O_____________ hurdat_atl AL121973 32.0000 -54.0000 HU 80 977 1 13 359
1973258N11338 1973 98 NA NA ELLEN 1973-09-21 03:00:00 TS 32.6499 -53.9946 main 1529 1460 P_____________ AL121973 32.6499 -53.9946 HU 80 1 13 4
1973258N11338 1973 98 NA NA ELLEN 1973-09-21 06:00:00 TS 33.3000 -53.9000 80 hurdat_atl main 1460 1406 O_____________ hurdat_atl AL121973 33.3000 -53.9000 HU 80 1 13 10
1973258N11338 1973 98 NA NA ELLEN 1973-09-21 09:00:00 TS 33.9423 -53.7095 main 1406 1335 P_____________ AL121973 33.9423 -53.7095 HU 80 1 14 18
1973258N11338 1973 98 NA NA ELLEN 1973-09-21 12:00:00 TS 34.6000 -53.4000 80 hurdat_atl main 1335 1268 O_____________ hurdat_atl AL121973 34.6000 -53.4000 HU 80 1 15 23
1973258N11338 1973 98 NA NA ELLEN 1973-09-21 15:00:00 TS 35.2844 -53.0309 main 1257 1180 P_____________ AL121973 35.2844 -53.0309 HU 85 2 16 28
1973258N11338 1973 98 NA NA ELLEN 1973-09-21 18:00:00 TS 36.0000 -52.5000 90 962 hurdat_atl main 1180 1106 O_____________ hurdat_atl AL121973 36.0000 -52.5000 HU 90 962 2 17 35
1973258N11338 1973 98 NA NA ELLEN 1973-09-21 21:00:00 TS 36.7040 -51.8090 main 1107 1028 P_____________ AL121973 36.7040 -51.8090 HU 90 2 20 41
1973258N11338 1973 98 NA NA ELLEN 1973-09-22 00:00:00 TS 37.5000 -50.9000 90 hurdat_atl main 1029 950 O_____________ hurdat_atl AL121973 37.5000 -50.9000 HU 90 2 23 43
1973258N11338 1973 98 NA NA ELLEN 1973-09-22 03:00:00 TS 38.4159 -49.8217 main 953 879 P_____________ AL121973 38.4159 -49.8217 HU 92 2 27 43
1973258N11338 1973 98 NA NA ELLEN 1973-09-22 06:00:00 TS 39.5000 -48.5000 95 hurdat_atl main 875 822 O_____________ hurdat_atl AL121973 39.5000 -48.5000 HU 95 2 32 44
1973258N11338 1973 98 NA NA ELLEN 1973-09-22 09:00:00 TS 40.7543 -46.9452 main 818 800 P_____________ AL121973 40.7543 -46.9452 HU 97 3 36 44
1973258N11338 1973 98 NA NA ELLEN 1973-09-22 12:00:00 TS 42.1000 -45.2000 100 hurdat_atl main 806 805 O_____________ hurdat_atl AL121973 42.1000 -45.2000 HU 100 3 36 46
1973258N11338 1973 98 NA NA ELLEN 1973-09-22 15:00:00 TS 43.2987 -43.4185 main 845 845 P_____________ AL121973 43.2987 -43.4185 HU 97 3 37 46
1973258N11338 1973 98 NA NA ELLEN 1973-09-22 18:00:00 ET 44.7000 -41.5000 95 980 hurdat_atl main 906 906 O_____________ hurdat_atl AL121973 44.7000 -41.5000 EX 95 980 -4 43 41
1973258N11338 1973 98 NA NA ELLEN 1973-09-22 21:00:00 ET 46.5636 -39.3712 main 999 999 P_____________ AL121973 46.5636 -39.3712 EX 87 -4 50 38
1973258N11338 1973 98 NA NA ELLEN 1973-09-23 00:00:00 ET 48.6000 -37.0000 80 hurdat_atl main 1158 1158 O_____________ hurdat_atl AL121973 48.6000 -37.0000 EX 80 -4 51 40
1973258N11338 1973 98 NA NA ELLEN 1973-09-23 03:00:00 ET 50.4948 -34.4380 main 1194 1114 P_____________ AL121973 50.4948 -34.4380 EX 70 -4 50 43
1973258N11338 1973 98 NA NA ELLEN 1973-09-23 06:00:00 ET 52.3000 -31.6000 60 hurdat_atl main 1113 1095 O_____________ hurdat_atl AL121973 52.3000 -31.6000 EX 60 -4 50 47
1973258N11338 1973 98 NA NA ELLEN 1973-09-23 09:00:00 ET 53.9652 -28.4492 main 1108 938 P_____________ AL121973 53.9652 -28.4492 EX 55 -4 50 51
1973258N11338 1973 98 NA NA ELLEN 1973-09-23 12:00:00 ET 55.5000 -25.0000 50 hurdat_atl main 924 O_____________ hurdat_atl AL121973 55.5000 -25.0000 EX 50 -4 50 52

IBTrACS Databaseについて

本データベースは、米国NOAAが公開する1842年以降の世界の熱帯低気圧のベストトラックデータアーカイブInternational Best Track Archive for Climate Stewardship (IBTrACS)を、ウェブで閲覧しやすい形式に変換したものです。

最終更新日:2021-12-03